sensor_id;sensor_type;location;lat;lon;timestamp;P1;durP1;ratioP1;P2;durP2;ratioP2
40314;SDS011;26021;45.640;11.302;2023-04-01T00:01:09;43.08;;;31.35;;
40314;SDS011;26021;45.640;11.302;2023-04-01T00:03:38;43.38;;;32.85;;
40314;SDS011;26021;45.640;11.302;2023-04-01T00:06:04;45.05;;;34.92;;
40314;SDS011;26021;45.640;11.302;2023-04-01T00:08:30;44.67;;;32.75;;
40314;SDS011;26021;45.640;11.302;2023-04-01T00:10:56;46.47;;;32.72;;
40314;SDS011;26021;45.640;11.302;2023-04-01T00:13:22;38.80;;;29.80;;
40314;SDS011;26021;45.640;11.302;2023-04-01T00:15:47;40.42;;;30.13;;
40314;SDS011;26021;45.640;11.302;2023-04-01T00:18:13;38.60;;;29.30;;
40314;SDS011;26021;45.640;11.302;2023-04-01T00:20:43;41.00;;;29.27;;
40314;SDS011;26021;45.640;11.302;2023-04-01T00:23:12;40.13;;;29.42;;
40314;SDS011;26021;45.640;11.302;2023-04-01T00:25:38;41.38;;;30.15;;
40314;SDS011;26021;45.640;11.302;2023-04-01T00:28:04;39.65;;;29.60;;
40314;SDS011;26021;45.640;11.302;2023-04-01T00:30:29;41.53;;;30.25;;
40314;SDS011;26021;45.640;11.302;2023-04-01T00:32:55;37.10;;;28.13;;
40314;SDS011;26021;45.640;11.302;2023-04-01T00:35:20;34.80;;;26.63;;
40314;SDS011;26021;45.640;11.302;2023-04-01T00:37:46;37.60;;;26.63;;
40314;SDS011;26021;45.640;11.302;2023-04-01T00:43:12;37.38;;;26.25;;
40314;SDS011;26021;45.640;11.302;2023-04-01T00:45:41;36.70;;;28.10;;
40314;SDS011;26021;45.640;11.302;2023-04-01T00:50:47;41.78;;;29.33;;
40314;SDS011;26021;45.640;11.302;2023-04-01T00:53:16;39.15;;;28.58;;
40314;SDS011;26021;45.640;11.302;2023-04-01T00:55:46;40.53;;;30.50;;
40314;SDS011;26021;45.640;11.302;2023-04-01T00:58:17;46.95;;;31.70;;
40314;SDS011;26021;45.640;11.302;2023-04-01T01:00:45;41.67;;;30.58;;
40314;SDS011;26021;45.640;11.302;2023-04-01T01:03:13;43.25;;;31.33;;
40314;SDS011;26021;45.640;11.302;2023-04-01T01:11:03;47.80;;;32.72;;
40314;SDS011;26021;45.640;11.302;2023-04-01T01:13:36;42.25;;;29.83;;
40314;SDS011;26021;45.640;11.302;2023-04-01T01:16:24;44.42;;;32.13;;
40314;SDS011;26021;45.640;11.302;2023-04-01T01:18:56;45.83;;;31.60;;
40314;SDS011;26021;45.640;11.302;2023-04-01T01:21:54;35.22;;;25.98;;
40314;SDS011;26021;45.640;11.302;2023-04-01T01:27:12;40.05;;;27.48;;
40314;SDS011;26021;45.640;11.302;2023-04-01T01:29:48;39.55;;;25.52;;
40314;SDS011;26021;45.640;11.302;2023-04-01T01:35:37;34.65;;;25.17;;
40314;SDS011;26021;45.640;11.302;2023-04-01T01:38:08;33.85;;;23.88;;
40314;SDS011;26021;45.640;11.302;2023-04-01T01:40:39;35.72;;;25.08;;
40314;SDS011;26021;45.640;11.302;2023-04-01T01:43:09;35.60;;;24.65;;
40314;SDS011;26021;45.640;11.302;2023-04-01T01:45:39;38.53;;;24.02;;
40314;SDS011;26021;45.640;11.302;2023-04-01T01:48:08;33.85;;;25.45;;
40314;SDS011;26021;45.640;11.302;2023-04-01T01:50:35;34.85;;;24.70;;
40314;SDS011;26021;45.640;11.302;2023-04-01T01:53:03;31.55;;;23.55;;
40314;SDS011;26021;45.640;11.302;2023-04-01T01:55:35;34.10;;;22.85;;
40314;SDS011;26021;45.640;11.302;2023-04-01T01:58:07;34.25;;;24.63;;
40314;SDS011;26021;45.640;11.302;2023-04-01T02:00:40;34.00;;;23.88;;
40314;SDS011;26021;45.640;11.302;2023-04-01T02:03:09;37.53;;;27.23;;
40314;SDS011;26021;45.640;11.302;2023-04-01T02:05:37;36.00;;;26.60;;
40314;SDS011;26021;45.640;11.302;2023-04-01T02:08:21;34.25;;;24.35;;
40314;SDS011;26021;45.640;11.302;2023-04-01T02:10:57;32.40;;;23.08;;
40314;SDS011;26021;45.640;11.302;2023-04-01T02:14:06;34.55;;;23.13;;
40314;SDS011;26021;45.640;11.302;2023-04-01T02:16:40;34.58;;;23.58;;
40314;SDS011;26021;45.640;11.302;2023-04-01T02:19:23;28.58;;;21.92;;
40314;SDS011;26021;45.640;11.302;2023-04-01T02:21:58;27.90;;;21.33;;
40314;SDS011;26021;45.640;11.302;2023-04-01T02:24:26;30.88;;;22.85;;
40314;SDS011;26021;45.640;11.302;2023-04-01T02:26:55;30.63;;;21.92;;
40314;SDS011;26021;45.640;11.302;2023-04-01T02:29:21;29.05;;;21.17;;
40314;SDS011;26021;45.640;11.302;2023-04-01T02:31:50;35.15;;;23.02;;
40314;SDS011;26021;45.640;11.302;2023-04-01T02:34:17;32.00;;;21.00;;
40314;SDS011;26021;45.640;11.302;2023-04-01T02:36:44;29.27;;;22.20;;
40314;SDS011;26021;45.640;11.302;2023-04-01T02:39:10;29.58;;;21.95;;
40314;SDS011;26021;45.640;11.302;2023-04-01T02:41:40;33.95;;;24.60;;
40314;SDS011;26021;45.640;11.302;2023-04-01T02:44:06;34.17;;;25.38;;
40314;SDS011;26021;45.640;11.302;2023-04-01T02:46:32;36.55;;;26.80;;
40314;SDS011;26021;45.640;11.302;2023-04-01T02:48:58;38.90;;;28.27;;
40314;SDS011;26021;45.640;11.302;2023-04-01T02:51:23;41.28;;;29.67;;
40314;SDS011;26021;45.640;11.302;2023-04-01T02:53:48;46.33;;;31.70;;
40314;SDS011;26021;45.640;11.302;2023-04-01T02:56:14;44.83;;;32.35;;
40314;SDS011;26021;45.640;11.302;2023-04-01T02:58:39;43.33;;;30.25;;
40314;SDS011;26021;45.640;11.302;2023-04-01T03:01:05;39.08;;;24.77;;
40314;SDS011;26021;45.640;11.302;2023-04-01T03:03:30;41.20;;;27.08;;
40314;SDS011;26021;45.640;11.302;2023-04-01T03:05:56;42.03;;;29.65;;
40314;SDS011;26021;45.640;11.302;2023-04-01T03:08:23;50.55;;;32.58;;
40314;SDS011;26021;45.640;11.302;2023-04-01T03:10:49;43.95;;;29.95;;
40314;SDS011;26021;45.640;11.302;2023-04-01T03:13:14;45.60;;;29.85;;
40314;SDS011;26021;45.640;11.302;2023-04-01T03:15:40;45.67;;;30.20;;
40314;SDS011;26021;45.640;11.302;2023-04-01T03:18:05;51.65;;;31.75;;
40314;SDS011;26021;45.640;11.302;2023-04-01T03:20:31;40.47;;;30.17;;
40314;SDS011;26021;45.640;11.302;2023-04-01T03:22:56;35.88;;;25.83;;
40314;SDS011;26021;45.640;11.302;2023-04-01T03:25:22;29.17;;;21.23;;
40314;SDS011;26021;45.640;11.302;2023-04-01T03:27:48;41.88;;;28.23;;
40314;SDS011;26021;45.640;11.302;2023-04-01T03:30:13;44.70;;;30.75;;
40314;SDS011;26021;45.640;11.302;2023-04-01T03:32:39;44.75;;;32.38;;
40314;SDS011;26021;45.640;11.302;2023-04-01T03:35:05;48.60;;;33.13;;
40314;SDS011;26021;45.640;11.302;2023-04-01T03:37:30;50.70;;;33.20;;
40314;SDS011;26021;45.640;11.302;2023-04-01T03:39:57;50.83;;;35.13;;
40314;SDS011;26021;45.640;11.302;2023-04-01T03:42:22;44.53;;;32.67;;
40314;SDS011;26021;45.640;11.302;2023-04-01T03:44:47;49.83;;;32.03;;
40314;SDS011;26021;45.640;11.302;2023-04-01T03:47:13;40.50;;;28.98;;
40314;SDS011;26021;45.640;11.302;2023-04-01T03:49:38;36.63;;;27.00;;
40314;SDS011;26021;45.640;11.302;2023-04-01T03:52:04;35.67;;;25.85;;
40314;SDS011;26021;45.640;11.302;2023-04-01T03:54:34;36.65;;;24.85;;
40314;SDS011;26021;45.640;11.302;2023-04-01T03:57:00;34.28;;;24.02;;
40314;SDS011;26021;45.640;11.302;2023-04-01T03:59:25;33.40;;;22.27;;
40314;SDS011;26021;45.640;11.302;2023-04-01T04:01:51;30.92;;;22.45;;
40314;SDS011;26021;45.640;11.302;2023-04-01T04:04:16;29.55;;;19.45;;
40314;SDS011;26021;45.640;11.302;2023-04-01T04:06:42;29.27;;;19.05;;
40314;SDS011;26021;45.640;11.302;2023-04-01T04:09:08;31.33;;;23.45;;
40314;SDS011;26021;45.640;11.302;2023-04-01T04:11:33;33.90;;;25.17;;
40314;SDS011;26021;45.640;11.302;2023-04-01T04:13:59;35.60;;;24.85;;
40314;SDS011;26021;45.640;11.302;2023-04-01T04:16:25;33.13;;;24.45;;
40314;SDS011;26021;45.640;11.302;2023-04-01T04:18:50;34.97;;;24.20;;
40314;SDS011;26021;45.640;11.302;2023-04-01T04:21:16;32.03;;;22.90;;
40314;SDS011;26021;45.640;11.302;2023-04-01T04:23:42;32.58;;;23.55;;
40314;SDS011;26021;45.640;11.302;2023-04-01T04:26:09;33.55;;;24.15;;
40314;SDS011;26021;45.640;11.302;2023-04-01T04:28:36;35.72;;;26.00;;
40314;SDS011;26021;45.640;11.302;2023-04-01T04:31:02;35.63;;;24.70;;
40314;SDS011;26021;45.640;11.302;2023-04-01T04:33:30;32.10;;;21.83;;
40314;SDS011;26021;45.640;11.302;2023-04-01T04:35:56;31.58;;;22.05;;
40314;SDS011;26021;45.640;11.302;2023-04-01T04:38:23;31.27;;;21.98;;
40314;SDS011;26021;45.640;11.302;2023-04-01T04:40:49;29.58;;;20.58;;
40314;SDS011;26021;45.640;11.302;2023-04-01T04:43:15;30.00;;;20.45;;
40314;SDS011;26021;45.640;11.302;2023-04-01T04:45:41;30.98;;;20.73;;
40314;SDS011;26021;45.640;11.302;2023-04-01T04:48:08;26.35;;;18.95;;
40314;SDS011;26021;45.640;11.302;2023-04-01T04:50:34;20.80;;;16.75;;
40314;SDS011;26021;45.640;11.302;2023-04-01T04:53:00;20.58;;;16.45;;
40314;SDS011;26021;45.640;11.302;2023-04-01T04:55:26;24.80;;;17.50;;
40314;SDS011;26021;45.640;11.302;2023-04-01T04:57:51;23.70;;;17.60;;
40314;SDS011;26021;45.640;11.302;2023-04-01T05:00:17;27.38;;;19.25;;
40314;SDS011;26021;45.640;11.302;2023-04-01T05:02:42;26.15;;;18.63;;
40314;SDS011;26021;45.640;11.302;2023-04-01T05:05:08;24.65;;;18.83;;
40314;SDS011;26021;45.640;11.302;2023-04-01T05:07:34;28.23;;;19.63;;
40314;SDS011;26021;45.640;11.302;2023-04-01T05:09:59;25.25;;;17.42;;
40314;SDS011;26021;45.640;11.302;2023-04-01T05:12:25;24.73;;;17.52;;
40314;SDS011;26021;45.640;11.302;2023-04-01T05:14:50;21.35;;;16.52;;
40314;SDS011;26021;45.640;11.302;2023-04-01T05:17:16;22.45;;;16.38;;
40314;SDS011;26021;45.640;11.302;2023-04-01T05:19:41;21.50;;;16.40;;
40314;SDS011;26021;45.640;11.302;2023-04-01T05:22:07;21.67;;;14.52;;
40314;SDS011;26021;45.640;11.302;2023-04-01T05:24:32;19.92;;;15.23;;
40314;SDS011;26021;45.640;11.302;2023-04-01T05:26:58;19.67;;;14.73;;
40314;SDS011;26021;45.640;11.302;2023-04-01T05:29:25;18.15;;;12.80;;
40314;SDS011;26021;45.640;11.302;2023-04-01T05:31:51;17.35;;;12.60;;
40314;SDS011;26021;45.640;11.302;2023-04-01T05:34:17;18.08;;;13.50;;
40314;SDS011;26021;45.640;11.302;2023-04-01T05:36:43;16.70;;;12.40;;
40314;SDS011;26021;45.640;11.302;2023-04-01T05:39:09;15.55;;;11.90;;
40314;SDS011;26021;45.640;11.302;2023-04-01T05:41:35;17.55;;;11.73;;
40314;SDS011;26021;45.640;11.302;2023-04-01T05:44:01;17.42;;;11.68;;
40314;SDS011;26021;45.640;11.302;2023-04-01T05:46:27;15.30;;;11.95;;
40314;SDS011;26021;45.640;11.302;2023-04-01T05:48:53;14.32;;;11.65;;
40314;SDS011;26021;45.640;11.302;2023-04-01T05:51:18;17.67;;;12.32;;
40314;SDS011;26021;45.640;11.302;2023-04-01T05:53:44;16.85;;;12.98;;
40314;SDS011;26021;45.640;11.302;2023-04-01T05:56:09;16.42;;;12.48;;
40314;SDS011;26021;45.640;11.302;2023-04-01T05:58:36;17.58;;;13.05;;
40314;SDS011;26021;45.640;11.302;2023-04-01T06:01:03;17.13;;;12.27;;
40314;SDS011;26021;45.640;11.302;2023-04-01T06:03:30;16.73;;;14.73;;
40314;SDS011;26021;45.640;11.302;2023-04-01T06:05:55;18.27;;;14.13;;
40314;SDS011;26021;45.640;11.302;2023-04-01T06:08:21;16.48;;;11.57;;
40314;SDS011;26021;45.640;11.302;2023-04-01T06:19:04;12.68;;;10.32;;
40314;SDS011;26021;45.640;11.302;2023-04-01T06:25:04;12.15;;;8.43;;
40314;SDS011;26021;45.640;11.302;2023-04-01T06:47:28;9.70;;;6.95;;
40314;SDS011;26021;45.640;11.302;2023-04-01T06:55:37;9.52;;;7.40;;
40314;SDS011;26021;45.640;11.302;2023-04-01T06:58:06;12.27;;;6.97;;
40314;SDS011;26021;45.640;11.302;2023-04-01T07:00:43;9.68;;;6.53;;
40314;SDS011;26021;45.640;11.302;2023-04-01T07:05:42;9.88;;;7.22;;
40314;SDS011;26021;45.640;11.302;2023-04-01T07:08:10;8.15;;;6.70;;
40314;SDS011;26021;45.640;11.302;2023-04-01T07:10:47;8.20;;;7.05;;
40314;SDS011;26021;45.640;11.302;2023-04-01T07:21:02;11.60;;;9.65;;
40314;SDS011;26021;45.640;11.302;2023-04-01T07:23:38;8.57;;;7.28;;
40314;SDS011;26021;45.640;11.302;2023-04-01T07:26:18;9.25;;;8.02;;
40314;SDS011;26021;45.640;11.302;2023-04-01T07:28:46;8.57;;;5.93;;
40314;SDS011;26021;45.640;11.302;2023-04-01T07:31:29;7.18;;;5.93;;
40314;SDS011;26021;45.640;11.302;2023-04-01T07:34:09;9.07;;;6.90;;
40314;SDS011;26021;45.640;11.302;2023-04-01T07:36:44;14.35;;;10.43;;
40314;SDS011;26021;45.640;11.302;2023-04-01T07:40:17;18.17;;;14.93;;
40314;SDS011;26021;45.640;11.302;2023-04-01T07:50:30;22.33;;;17.08;;
40314;SDS011;26021;45.640;11.302;2023-04-01T08:01:10;24.00;;;18.73;;
40314;SDS011;26021;45.640;11.302;2023-04-01T08:06:31;43.42;;;29.88;;
40314;SDS011;26021;45.640;11.302;2023-04-01T08:12:34;42.80;;;30.13;;
40314;SDS011;26021;45.640;11.302;2023-04-01T08:14:53;46.72;;;31.23;;
40314;SDS011;26021;45.640;11.302;2023-04-01T08:23:16;45.45;;;32.92;;
40314;SDS011;26021;45.640;11.302;2023-04-01T08:25:52;39.00;;;30.70;;
40314;SDS011;26021;45.640;11.302;2023-04-01T08:31:03;43.42;;;31.42;;
40314;SDS011;26021;45.640;11.302;2023-04-01T08:33:34;41.70;;;31.63;;
40314;SDS011;26021;45.640;11.302;2023-04-01T08:36:12;40.90;;;31.98;;
40314;SDS011;26021;45.640;11.302;2023-04-01T08:38:46;44.75;;;31.75;;
40314;SDS011;26021;45.640;11.302;2023-04-01T08:41:29;45.65;;;32.63;;
40314;SDS011;26021;45.640;11.302;2023-04-01T09:00:22;47.10;;;34.05;;
40314;SDS011;26021;45.640;11.302;2023-04-01T09:03:42;44.20;;;33.45;;
40314;SDS011;26021;45.640;11.302;2023-04-01T09:34:12;41.83;;;30.05;;
40314;SDS011;26021;45.640;11.302;2023-04-01T09:42:43;37.70;;;28.60;;
40314;SDS011;26021;45.640;11.302;2023-04-01T09:50:38;40.88;;;31.75;;
40314;SDS011;26021;45.640;11.302;2023-04-01T09:56:06;43.60;;;32.95;;
40314;SDS011;26021;45.640;11.302;2023-04-01T09:59:20;44.33;;;31.98;;
40314;SDS011;26021;45.640;11.302;2023-04-01T10:27:03;45.38;;;33.67;;
40314;SDS011;26021;45.640;11.302;2023-04-01T10:40:53;53.85;;;37.33;;
40314;SDS011;26021;45.640;11.302;2023-04-01T10:49:29;53.50;;;38.97;;
40314;SDS011;26021;45.640;11.302;2023-04-01T11:19:26;43.45;;;33.53;;
40314;SDS011;26021;45.640;11.302;2023-04-01T11:35:46;45.63;;;33.22;;
40314;SDS011;26021;45.640;11.302;2023-04-01T11:54:40;54.38;;;37.47;;
40314;SDS011;26021;45.640;11.302;2023-04-01T12:08:27;40.63;;;31.23;;
40314;SDS011;26021;45.640;11.302;2023-04-01T12:11:00;45.58;;;32.55;;
40314;SDS011;26021;45.640;11.302;2023-04-01T12:13:42;44.70;;;31.85;;
40314;SDS011;26021;45.640;11.302;2023-04-01T12:21:50;41.17;;;31.73;;
40314;SDS011;26021;45.640;11.302;2023-04-01T12:24:43;43.55;;;32.03;;
40314;SDS011;26021;45.640;11.302;2023-04-01T12:30:14;40.17;;;31.38;;
40314;SDS011;26021;45.640;11.302;2023-04-01T12:39:06;40.97;;;29.63;;
40314;SDS011;26021;45.640;11.302;2023-04-01T12:42:03;37.88;;;29.92;;
40314;SDS011;26021;45.640;11.302;2023-04-01T13:10:42;36.38;;;25.77;;
40314;SDS011;26021;45.640;11.302;2023-04-01T13:15:48;36.92;;;27.85;;
40314;SDS011;26021;45.640;11.302;2023-04-01T13:34:17;31.20;;;24.83;;
40314;SDS011;26021;45.640;11.302;2023-04-01T13:42:31;22.60;;;17.33;;
40314;SDS011;26021;45.640;11.302;2023-04-01T13:55:55;11.00;;;8.68;;
40314;SDS011;26021;45.640;11.302;2023-04-01T13:58:57;20.25;;;10.27;;
40314;SDS011;26021;45.640;11.302;2023-04-01T14:01:32;5.00;;;3.97;;
40314;SDS011;26021;45.640;11.302;2023-04-01T14:09:45;9.50;;;4.88;;
40314;SDS011;26021;45.640;11.302;2023-04-01T14:31:15;1.92;;;1.20;;
40314;SDS011;26021;45.640;11.302;2023-04-01T14:44:44;18.88;;;13.70;;
40314;SDS011;26021;45.640;11.302;2023-04-01T14:47:44;20.45;;;16.05;;
40314;SDS011;26021;45.640;11.302;2023-04-01T14:50:17;16.27;;;13.77;;
40314;SDS011;26021;45.640;11.302;2023-04-01T14:55:42;19.42;;;14.55;;
40314;SDS011;26021;45.640;11.302;2023-04-01T14:58:22;16.83;;;13.13;;
40314;SDS011;26021;45.640;11.302;2023-04-01T15:17:25;8.23;;;7.35;;
40314;SDS011;26021;45.640;11.302;2023-04-01T15:35:46;7.43;;;5.65;;
40314;SDS011;26021;45.640;11.302;2023-04-01T15:43:47;6.28;;;4.25;;
40314;SDS011;26021;45.640;11.302;2023-04-01T16:03:15;1.83;;;1.30;;
40314;SDS011;26021;45.640;11.302;2023-04-01T16:22:57;0.93;;;0.90;;
40314;SDS011;26021;45.640;11.302;2023-04-01T16:25:36;1.17;;;1.08;;
40314;SDS011;26021;45.640;11.302;2023-04-01T16:28:22;1.50;;;1.40;;
40314;SDS011;26021;45.640;11.302;2023-04-01T16:33:47;1.58;;;1.48;;
40314;SDS011;26021;45.640;11.302;2023-04-01T16:36:26;8.43;;;6.40;;
40314;SDS011;26021;45.640;11.302;2023-04-01T16:41:29;2.83;;;2.60;;
40314;SDS011;26021;45.640;11.302;2023-04-01T16:49:33;26.35;;;21.98;;
40314;SDS011;26021;45.640;11.302;2023-04-01T16:54:39;4.50;;;4.10;;
40314;SDS011;26021;45.640;11.302;2023-04-01T16:57:49;2.42;;;2.22;;
40314;SDS011;26021;45.640;11.302;2023-04-01T17:08:19;3.20;;;2.60;;
40314;SDS011;26021;45.640;11.302;2023-04-01T17:11:18;2.63;;;1.92;;
40314;SDS011;26021;45.640;11.302;2023-04-01T17:14:39;2.10;;;1.92;;
40314;SDS011;26021;45.640;11.302;2023-04-01T17:16:59;1.67;;;1.58;;
40314;SDS011;26021;45.640;11.302;2023-04-01T17:19:37;10.60;;;9.48;;
40314;SDS011;26021;45.640;11.302;2023-04-01T17:35:47;9.40;;;8.43;;
40314;SDS011;26021;45.640;11.302;2023-04-01T17:41:06;10.52;;;5.70;;
40314;SDS011;26021;45.640;11.302;2023-04-01T17:54:49;6.80;;;5.82;;
40314;SDS011;26021;45.640;11.302;2023-04-01T18:00:23;8.30;;;5.65;;
40314;SDS011;26021;45.640;11.302;2023-04-01T18:06:02;11.40;;;8.90;;
40314;SDS011;26021;45.640;11.302;2023-04-01T18:13:55;14.60;;;10.52;;
40314;SDS011;26021;45.640;11.302;2023-04-01T18:16:31;16.88;;;10.43;;
40314;SDS011;26021;45.640;11.302;2023-04-01T18:19:56;13.07;;;9.95;;
40314;SDS011;26021;45.640;11.302;2023-04-01T18:22:36;13.50;;;9.43;;
40314;SDS011;26021;45.640;11.302;2023-04-01T18:25:28;13.23;;;11.43;;
40314;SDS011;26021;45.640;11.302;2023-04-01T18:30:54;12.88;;;9.73;;
40314;SDS011;26021;45.640;11.302;2023-04-01T18:39:32;16.33;;;11.77;;
40314;SDS011;26021;45.640;11.302;2023-04-01T18:48:12;15.93;;;10.85;;
40314;SDS011;26021;45.640;11.302;2023-04-01T18:50:58;27.10;;;21.20;;
40314;SDS011;26021;45.640;11.302;2023-04-01T18:56:03;14.75;;;10.00;;
40314;SDS011;26021;45.640;11.302;2023-04-01T18:58:52;15.50;;;11.45;;
40314;SDS011;26021;45.640;11.302;2023-04-01T19:04:32;12.60;;;9.50;;
40314;SDS011;26021;45.640;11.302;2023-04-01T19:09:48;13.20;;;9.85;;
40314;SDS011;26021;45.640;11.302;2023-04-01T19:20:30;17.52;;;11.82;;
40314;SDS011;26021;45.640;11.302;2023-04-01T19:26:00;20.10;;;13.98;;
40314;SDS011;26021;45.640;11.302;2023-04-01T19:34:18;21.80;;;13.52;;
40314;SDS011;26021;45.640;11.302;2023-04-01T19:40:16;33.15;;;24.13;;
40314;SDS011;26021;45.640;11.302;2023-04-01T19:42:55;27.48;;;20.05;;
40314;SDS011;26021;45.640;11.302;2023-04-01T19:50:52;35.97;;;25.73;;
40314;SDS011;26021;45.640;11.302;2023-04-01T19:58:33;43.88;;;30.70;;
40314;SDS011;26021;45.640;11.302;2023-04-01T20:01:11;39.42;;;30.83;;
40314;SDS011;26021;45.640;11.302;2023-04-01T20:28:02;48.97;;;35.43;;
40314;SDS011;26021;45.640;11.302;2023-04-01T21:12:30;48.30;;;37.10;;
40314;SDS011;26021;45.640;11.302;2023-04-01T21:23:17;51.42;;;37.25;;
40314;SDS011;26021;45.640;11.302;2023-04-01T21:28:49;57.72;;;35.75;;
40314;SDS011;26021;45.640;11.302;2023-04-01T21:31:36;47.88;;;34.67;;
40314;SDS011;26021;45.640;11.302;2023-04-01T21:38:32;46.38;;;34.35;;
40314;SDS011;26021;45.640;11.302;2023-04-01T21:48:22;47.10;;;32.25;;
40314;SDS011;26021;45.640;11.302;2023-04-01T21:53:38;46.83;;;32.78;;
40314;SDS011;26021;45.640;11.302;2023-04-01T21:56:11;52.58;;;37.35;;
40314;SDS011;26021;45.640;11.302;2023-04-01T22:05:10;52.72;;;36.33;;
40314;SDS011;26021;45.640;11.302;2023-04-01T22:13:10;51.50;;;34.83;;
40314;SDS011;26021;45.640;11.302;2023-04-01T22:29:05;50.67;;;34.60;;
40314;SDS011;26021;45.640;11.302;2023-04-01T22:37:23;48.75;;;34.92;;
40314;SDS011;26021;45.640;11.302;2023-04-01T22:43:07;48.08;;;35.25;;
40314;SDS011;26021;45.640;11.302;2023-04-01T22:48:18;49.67;;;35.45;;
40314;SDS011;26021;45.640;11.302;2023-04-01T22:50:53;51.28;;;36.75;;
40314;SDS011;26021;45.640;11.302;2023-04-01T22:56:24;49.15;;;36.13;;
40314;SDS011;26021;45.640;11.302;2023-04-01T22:59:06;48.63;;;36.90;;
40314;SDS011;26021;45.640;11.302;2023-04-01T23:01:34;50.03;;;37.45;;
40314;SDS011;26021;45.640;11.302;2023-04-01T23:04:07;52.78;;;37.78;;
40314;SDS011;26021;45.640;11.302;2023-04-01T23:06:42;49.00;;;37.10;;
40314;SDS011;26021;45.640;11.302;2023-04-01T23:11:55;49.88;;;36.75;;
40314;SDS011;26021;45.640;11.302;2023-04-01T23:14:32;50.53;;;38.08;;
40314;SDS011;26021;45.640;11.302;2023-04-01T23:30:55;45.47;;;34.20;;
40314;SDS011;26021;45.640;11.302;2023-04-01T23:33:22;44.42;;;34.45;;
40314;SDS011;26021;45.640;11.302;2023-04-01T23:36:00;51.40;;;36.15;;
40314;SDS011;26021;45.640;11.302;2023-04-01T23:38:39;48.83;;;35.22;;
40314;SDS011;26021;45.640;11.302;2023-04-01T23:41:07;47.50;;;35.42;;
40314;SDS011;26021;45.640;11.302;2023-04-01T23:43:42;45.78;;;34.25;;
40314;SDS011;26021;45.640;11.302;2023-04-01T23:46:10;47.03;;;34.10;;
40314;SDS011;26021;45.640;11.302;2023-04-01T23:48:42;46.67;;;34.45;;
40314;SDS011;26021;45.640;11.302;2023-04-01T23:53:55;47.80;;;34.60;;
40314;SDS011;26021;45.640;11.302;2023-04-01T23:56:41;46.75;;;35.13;;
40314;SDS011;26021;45.640;11.302;2023-04-01T23:59:22;48.60;;;34.17;;
